sensor_id;sensor_type;location;lat;lon;timestamp;P1;durP1;ratioP1;P2;durP2;ratioP2
52858;SDS011;38721;53.098;6.596;2023-04-06T00:01:56;9.80;;;8.35;;
52858;SDS011;38721;53.098;6.596;2023-04-06T00:04:21;10.32;;;8.18;;
52858;SDS011;38721;53.098;6.596;2023-04-06T00:06:47;10.45;;;7.97;;
52858;SDS011;38721;53.098;6.596;2023-04-06T00:09:13;10.55;;;8.07;;
52858;SDS011;38721;53.098;6.596;2023-04-06T00:11:38;9.25;;;8.07;;
52858;SDS011;38721;53.098;6.596;2023-04-06T00:14:04;10.85;;;8.05;;
52858;SDS011;38721;53.098;6.596;2023-04-06T00:16:30;9.25;;;8.23;;
52858;SDS011;38721;53.098;6.596;2023-04-06T00:18:55;9.20;;;7.28;;
52858;SDS011;38721;53.098;6.596;2023-04-06T00:21:21;10.07;;;7.05;;
52858;SDS011;38721;53.098;6.596;2023-04-06T00:23:47;7.95;;;6.93;;
52858;SDS011;38721;53.098;6.596;2023-04-06T00:26:12;9.18;;;6.97;;
52858;SDS011;38721;53.098;6.596;2023-04-06T00:28:44;11.63;;;7.32;;
52858;SDS011;38721;53.098;6.596;2023-04-06T00:31:10;8.40;;;6.60;;
52858;SDS011;38721;53.098;6.596;2023-04-06T00:33:36;9.55;;;7.40;;
52858;SDS011;38721;53.098;6.596;2023-04-06T00:36:01;10.10;;;7.65;;
52858;SDS011;38721;53.098;6.596;2023-04-06T00:38:27;9.43;;;7.80;;
52858;SDS011;38721;53.098;6.596;2023-04-06T00:40:53;13.57;;;7.20;;
52858;SDS011;38721;53.098;6.596;2023-04-06T00:43:18;12.07;;;6.88;;
52858;SDS011;38721;53.098;6.596;2023-04-06T00:45:44;8.07;;;7.00;;
52858;SDS011;38721;53.098;6.596;2023-04-06T00:48:12;11.63;;;6.90;;
52858;SDS011;38721;53.098;6.596;2023-04-06T00:50:38;8.80;;;7.07;;
52858;SDS011;38721;53.098;6.596;2023-04-06T00:53:04;8.45;;;7.05;;
52858;SDS011;38721;53.098;6.596;2023-04-06T00:55:30;11.93;;;6.88;;
52858;SDS011;38721;53.098;6.596;2023-04-06T00:57:56;8.95;;;7.05;;
52858;SDS011;38721;53.098;6.596;2023-04-06T01:00:24;10.48;;;7.40;;
52858;SDS011;38721;53.098;6.596;2023-04-06T01:02:53;9.82;;;7.10;;
52858;SDS011;38721;53.098;6.596;2023-04-06T01:05:18;12.07;;;7.70;;
52858;SDS011;38721;53.098;6.596;2023-04-06T01:07:45;10.15;;;7.43;;
52858;SDS011;38721;53.098;6.596;2023-04-06T01:10:10;9.45;;;6.82;;
52858;SDS011;38721;53.098;6.596;2023-04-06T01:12:46;8.48;;;6.47;;
52858;SDS011;38721;53.098;6.596;2023-04-06T01:15:12;9.30;;;6.97;;
52858;SDS011;38721;53.098;6.596;2023-04-06T01:17:38;10.48;;;7.72;;
52858;SDS011;38721;53.098;6.596;2023-04-06T01:20:05;9.40;;;7.15;;
52858;SDS011;38721;53.098;6.596;2023-04-06T01:22:31;10.25;;;7.45;;
52858;SDS011;38721;53.098;6.596;2023-04-06T01:24:57;8.98;;;7.32;;
52858;SDS011;38721;53.098;6.596;2023-04-06T01:27:23;9.30;;;7.03;;
52858;SDS011;38721;53.098;6.596;2023-04-06T01:29:50;11.32;;;7.45;;
52858;SDS011;38721;53.098;6.596;2023-04-06T01:32:16;8.25;;;6.80;;
52858;SDS011;38721;53.098;6.596;2023-04-06T01:34:41;13.05;;;8.18;;
52858;SDS011;38721;53.098;6.596;2023-04-06T01:37:07;10.00;;;7.63;;
52858;SDS011;38721;53.098;6.596;2023-04-06T01:39:33;9.10;;;7.22;;
52858;SDS011;38721;53.098;6.596;2023-04-06T01:41:58;10.82;;;7.30;;
52858;SDS011;38721;53.098;6.596;2023-04-06T01:44:24;9.18;;;6.82;;
52858;SDS011;38721;53.098;6.596;2023-04-06T01:46:50;10.65;;;7.70;;
52858;SDS011;38721;53.098;6.596;2023-04-06T01:49:16;15.48;;;7.28;;
52858;SDS011;38721;53.098;6.596;2023-04-06T01:51:41;9.85;;;7.75;;
52858;SDS011;38721;53.098;6.596;2023-04-06T01:54:07;11.90;;;7.65;;
52858;SDS011;38721;53.098;6.596;2023-04-06T01:56:33;11.07;;;7.88;;
52858;SDS011;38721;53.098;6.596;2023-04-06T01:58:59;10.27;;;7.20;;
52858;SDS011;38721;53.098;6.596;2023-04-06T02:01:24;9.20;;;7.07;;
52858;SDS011;38721;53.098;6.596;2023-04-06T02:03:50;10.52;;;7.25;;
52858;SDS011;38721;53.098;6.596;2023-04-06T02:06:16;9.25;;;7.07;;
52858;SDS011;38721;53.098;6.596;2023-04-06T02:08:41;10.55;;;7.93;;
52858;SDS011;38721;53.098;6.596;2023-04-06T02:11:07;10.00;;;7.60;;
52858;SDS011;38721;53.098;6.596;2023-04-06T02:13:33;10.00;;;7.72;;
52858;SDS011;38721;53.098;6.596;2023-04-06T02:15:58;10.88;;;7.95;;
52858;SDS011;38721;53.098;6.596;2023-04-06T02:18:24;11.98;;;7.40;;
52858;SDS011;38721;53.098;6.596;2023-04-06T02:20:50;12.57;;;7.85;;
52858;SDS011;38721;53.098;6.596;2023-04-06T02:23:16;11.93;;;7.72;;
52858;SDS011;38721;53.098;6.596;2023-04-06T02:25:41;8.95;;;7.38;;
52858;SDS011;38721;53.098;6.596;2023-04-06T02:28:07;11.95;;;8.50;;
52858;SDS011;38721;53.098;6.596;2023-04-06T02:30:35;9.88;;;7.72;;
52858;SDS011;38721;53.098;6.596;2023-04-06T02:33:01;10.65;;;7.75;;
52858;SDS011;38721;53.098;6.596;2023-04-06T02:35:27;10.30;;;7.45;;
52858;SDS011;38721;53.098;6.596;2023-04-06T02:37:54;10.63;;;7.63;;
52858;SDS011;38721;53.098;6.596;2023-04-06T02:40:20;10.02;;;7.68;;
52858;SDS011;38721;53.098;6.596;2023-04-06T02:42:45;10.45;;;8.02;;
52858;SDS011;38721;53.098;6.596;2023-04-06T02:45:11;11.77;;;7.65;;
52858;SDS011;38721;53.098;6.596;2023-04-06T02:47:40;10.45;;;8.15;;
52858;SDS011;38721;53.098;6.596;2023-04-06T02:50:06;14.50;;;7.63;;
52858;SDS011;38721;53.098;6.596;2023-04-06T02:52:32;11.10;;;7.30;;
52858;SDS011;38721;53.098;6.596;2023-04-06T02:54:58;12.02;;;8.15;;
52858;SDS011;38721;53.098;6.596;2023-04-06T02:57:23;10.15;;;8.23;;
52858;SDS011;38721;53.098;6.596;2023-04-06T02:59:49;12.57;;;8.07;;
52858;SDS011;38721;53.098;6.596;2023-04-06T03:02:15;10.90;;;8.05;;
52858;SDS011;38721;53.098;6.596;2023-04-06T03:04:44;10.70;;;7.95;;
52858;SDS011;38721;53.098;6.596;2023-04-06T03:07:10;9.13;;;7.80;;
52858;SDS011;38721;53.098;6.596;2023-04-06T03:09:36;11.05;;;7.60;;
52858;SDS011;38721;53.098;6.596;2023-04-06T03:12:03;11.13;;;8.50;;
52858;SDS011;38721;53.098;6.596;2023-04-06T03:14:29;9.23;;;7.65;;
52858;SDS011;38721;53.098;6.596;2023-04-06T03:16:55;10.98;;;8.10;;
52858;SDS011;38721;53.098;6.596;2023-04-06T03:19:20;12.00;;;7.93;;
52858;SDS011;38721;53.098;6.596;2023-04-06T03:21:49;12.68;;;7.82;;
52858;SDS011;38721;53.098;6.596;2023-04-06T03:24:15;10.48;;;7.88;;
52858;SDS011;38721;53.098;6.596;2023-04-06T03:26:41;8.82;;;7.70;;
52858;SDS011;38721;53.098;6.596;2023-04-06T03:29:07;10.10;;;7.88;;
52858;SDS011;38721;53.098;6.596;2023-04-06T03:31:32;11.45;;;8.35;;
52858;SDS011;38721;53.098;6.596;2023-04-06T03:33:58;10.93;;;8.13;;
52858;SDS011;38721;53.098;6.596;2023-04-06T03:36:24;11.25;;;7.88;;
52858;SDS011;38721;53.098;6.596;2023-04-06T03:38:51;13.15;;;7.88;;
52858;SDS011;38721;53.098;6.596;2023-04-06T03:41:18;10.05;;;8.20;;
52858;SDS011;38721;53.098;6.596;2023-04-06T03:43:44;12.18;;;8.07;;
52858;SDS011;38721;53.098;6.596;2023-04-06T03:46:10;9.38;;;8.00;;
52858;SDS011;38721;53.098;6.596;2023-04-06T03:48:36;12.93;;;8.40;;
52858;SDS011;38721;53.098;6.596;2023-04-06T03:51:02;11.27;;;7.93;;
52858;SDS011;38721;53.098;6.596;2023-04-06T03:53:27;12.77;;;8.40;;
52858;SDS011;38721;53.098;6.596;2023-04-06T03:55:55;12.23;;;8.00;;
52858;SDS011;38721;53.098;6.596;2023-04-06T03:58:21;13.48;;;8.48;;
52858;SDS011;38721;53.098;6.596;2023-04-06T04:00:47;11.88;;;8.15;;
52858;SDS011;38721;53.098;6.596;2023-04-06T04:03:12;11.88;;;7.80;;
52858;SDS011;38721;53.098;6.596;2023-04-06T04:05:38;11.32;;;8.27;;
52858;SDS011;38721;53.098;6.596;2023-04-06T04:08:04;10.10;;;8.15;;
52858;SDS011;38721;53.098;6.596;2023-04-06T04:10:31;10.50;;;8.00;;
52858;SDS011;38721;53.098;6.596;2023-04-06T04:13:00;15.70;;;8.35;;
52858;SDS011;38721;53.098;6.596;2023-04-06T04:15:25;11.80;;;8.25;;
52858;SDS011;38721;53.098;6.596;2023-04-06T04:17:51;11.63;;;8.45;;
52858;SDS011;38721;53.098;6.596;2023-04-06T04:20:17;10.30;;;8.45;;
52858;SDS011;38721;53.098;6.596;2023-04-06T04:22:42;10.95;;;8.10;;
52858;SDS011;38721;53.098;6.596;2023-04-06T04:25:08;10.85;;;8.60;;
52858;SDS011;38721;53.098;6.596;2023-04-06T04:27:34;12.10;;;8.98;;
52858;SDS011;38721;53.098;6.596;2023-04-06T04:30:00;10.38;;;8.13;;
52858;SDS011;38721;53.098;6.596;2023-04-06T04:32:29;14.10;;;9.32;;
52858;SDS011;38721;53.098;6.596;2023-04-06T04:34:55;11.57;;;8.57;;
52858;SDS011;38721;53.098;6.596;2023-04-06T04:37:21;12.63;;;8.30;;
52858;SDS011;38721;53.098;6.596;2023-04-06T04:39:46;11.70;;;8.80;;
52858;SDS011;38721;53.098;6.596;2023-04-06T04:42:12;12.95;;;9.05;;
52858;SDS011;38721;53.098;6.596;2023-04-06T04:44:38;13.35;;;8.77;;
52858;SDS011;38721;53.098;6.596;2023-04-06T04:47:04;11.02;;;8.85;;
52858;SDS011;38721;53.098;6.596;2023-04-06T04:49:32;11.77;;;9.00;;
52858;SDS011;38721;53.098;6.596;2023-04-06T04:51:58;12.90;;;8.30;;
52858;SDS011;38721;53.098;6.596;2023-04-06T04:54:24;12.60;;;9.50;;
52858;SDS011;38721;53.098;6.596;2023-04-06T04:56:49;16.98;;;9.50;;
52858;SDS011;38721;53.098;6.596;2023-04-06T04:59:16;12.20;;;9.57;;
52858;SDS011;38721;53.098;6.596;2023-04-06T05:01:42;12.90;;;9.18;;
52858;SDS011;38721;53.098;6.596;2023-04-06T05:04:08;16.05;;;9.80;;
52858;SDS011;38721;53.098;6.596;2023-04-06T05:06:33;13.10;;;9.65;;
52858;SDS011;38721;53.098;6.596;2023-04-06T05:08:59;13.82;;;9.93;;
52858;SDS011;38721;53.098;6.596;2023-04-06T05:11:25;14.55;;;10.07;;
52858;SDS011;38721;53.098;6.596;2023-04-06T05:13:51;12.23;;;9.52;;
52858;SDS011;38721;53.098;6.596;2023-04-06T05:16:17;14.05;;;9.68;;
52858;SDS011;38721;53.098;6.596;2023-04-06T05:18:42;15.48;;;9.82;;
52858;SDS011;38721;53.098;6.596;2023-04-06T05:21:09;13.55;;;9.98;;
52858;SDS011;38721;53.098;6.596;2023-04-06T05:23:36;11.95;;;9.10;;
52858;SDS011;38721;53.098;6.596;2023-04-06T05:26:05;13.10;;;9.15;;
52858;SDS011;38721;53.098;6.596;2023-04-06T05:28:30;12.65;;;10.27;;
52858;SDS011;38721;53.098;6.596;2023-04-06T05:30:57;15.25;;;10.05;;
52858;SDS011;38721;53.098;6.596;2023-04-06T05:33:23;13.40;;;10.02;;
52858;SDS011;38721;53.098;6.596;2023-04-06T05:35:50;14.38;;;9.80;;
52858;SDS011;38721;53.098;6.596;2023-04-06T05:38:15;14.32;;;10.07;;
52858;SDS011;38721;53.098;6.596;2023-04-06T05:40:41;14.32;;;9.23;;
52858;SDS011;38721;53.098;6.596;2023-04-06T05:43:07;14.25;;;9.63;;
52858;SDS011;38721;53.098;6.596;2023-04-06T05:45:33;14.02;;;9.80;;
52858;SDS011;38721;53.098;6.596;2023-04-06T05:48:01;15.88;;;10.70;;
52858;SDS011;38721;53.098;6.596;2023-04-06T05:50:27;12.77;;;9.48;;
52858;SDS011;38721;53.098;6.596;2023-04-06T05:52:53;15.68;;;10.43;;
52858;SDS011;38721;53.098;6.596;2023-04-06T05:55:19;15.82;;;10.35;;
52858;SDS011;38721;53.098;6.596;2023-04-06T05:57:48;13.40;;;10.73;;
52858;SDS011;38721;53.098;6.596;2023-04-06T06:00:14;16.10;;;10.35;;
52858;SDS011;38721;53.098;6.596;2023-04-06T06:02:39;13.65;;;9.75;;
52858;SDS011;38721;53.098;6.596;2023-04-06T06:05:07;12.07;;;9.48;;
52858;SDS011;38721;53.098;6.596;2023-04-06T06:07:33;14.50;;;10.60;;
52858;SDS011;38721;53.098;6.596;2023-04-06T06:09:59;12.52;;;9.75;;
52858;SDS011;38721;53.098;6.596;2023-04-06T06:12:28;14.30;;;10.30;;
52858;SDS011;38721;53.098;6.596;2023-04-06T06:14:53;13.10;;;9.82;;
52858;SDS011;38721;53.098;6.596;2023-04-06T06:17:20;15.35;;;10.48;;
52858;SDS011;38721;53.098;6.596;2023-04-06T06:19:45;15.30;;;10.65;;
52858;SDS011;38721;53.098;6.596;2023-04-06T06:22:11;15.77;;;9.77;;
52858;SDS011;38721;53.098;6.596;2023-04-06T06:24:37;15.52;;;10.43;;
52858;SDS011;38721;53.098;6.596;2023-04-06T06:27:03;14.15;;;10.27;;
52858;SDS011;38721;53.098;6.596;2023-04-06T06:29:28;15.60;;;10.88;;
52858;SDS011;38721;53.098;6.596;2023-04-06T06:31:57;15.95;;;10.43;;
52858;SDS011;38721;53.098;6.596;2023-04-06T06:34:22;14.80;;;10.05;;
52858;SDS011;38721;53.098;6.596;2023-04-06T06:36:48;15.95;;;10.15;;
52858;SDS011;38721;53.098;6.596;2023-04-06T06:39:14;15.43;;;10.80;;
52858;SDS011;38721;53.098;6.596;2023-04-06T06:41:39;14.07;;;10.73;;
52858;SDS011;38721;53.098;6.596;2023-04-06T06:44:11;15.10;;;10.13;;
52858;SDS011;38721;53.098;6.596;2023-04-06T06:46:36;13.35;;;9.73;;
52858;SDS011;38721;53.098;6.596;2023-04-06T06:49:02;14.68;;;10.18;;
52858;SDS011;38721;53.098;6.596;2023-04-06T06:51:28;14.52;;;10.02;;
52858;SDS011;38721;53.098;6.596;2023-04-06T06:53:54;14.55;;;10.85;;
52858;SDS011;38721;53.098;6.596;2023-04-06T06:56:19;16.38;;;10.50;;
52858;SDS011;38721;53.098;6.596;2023-04-06T06:58:45;14.07;;;10.93;;
52858;SDS011;38721;53.098;6.596;2023-04-06T07:01:11;17.20;;;10.73;;
52858;SDS011;38721;53.098;6.596;2023-04-06T07:03:40;14.45;;;10.50;;
52858;SDS011;38721;53.098;6.596;2023-04-06T07:06:05;14.60;;;10.57;;
52858;SDS011;38721;53.098;6.596;2023-04-06T07:08:31;13.68;;;10.60;;
52858;SDS011;38721;53.098;6.596;2023-04-06T07:10:57;13.95;;;10.57;;
52858;SDS011;38721;53.098;6.596;2023-04-06T07:13:23;13.70;;;10.02;;
52858;SDS011;38721;53.098;6.596;2023-04-06T07:15:49;17.02;;;9.73;;
52858;SDS011;38721;53.098;6.596;2023-04-06T07:18:15;12.77;;;9.75;;
52858;SDS011;38721;53.098;6.596;2023-04-06T07:20:45;14.18;;;9.93;;
52858;SDS011;38721;53.098;6.596;2023-04-06T07:23:11;12.60;;;9.30;;
52858;SDS011;38721;53.098;6.596;2023-04-06T07:25:37;15.20;;;9.70;;
52858;SDS011;38721;53.098;6.596;2023-04-06T07:28:03;11.98;;;9.93;;
52858;SDS011;38721;53.098;6.596;2023-04-06T07:30:29;13.25;;;9.98;;
52858;SDS011;38721;53.098;6.596;2023-04-06T07:32:55;14.65;;;10.07;;
52858;SDS011;38721;53.098;6.596;2023-04-06T07:35:24;12.60;;;9.73;;
52858;SDS011;38721;53.098;6.596;2023-04-06T07:37:52;12.07;;;9.02;;
52858;SDS011;38721;53.098;6.596;2023-04-06T07:40:18;14.40;;;10.27;;
52858;SDS011;38721;53.098;6.596;2023-04-06T07:42:44;12.55;;;9.88;;
52858;SDS011;38721;53.098;6.596;2023-04-06T07:45:11;13.25;;;9.93;;
52858;SDS011;38721;53.098;6.596;2023-04-06T07:47:39;12.93;;;10.02;;
52858;SDS011;38721;53.098;6.596;2023-04-06T07:50:05;14.13;;;9.82;;
52858;SDS011;38721;53.098;6.596;2023-04-06T07:52:31;11.57;;;9.13;;
52858;SDS011;38721;53.098;6.596;2023-04-06T07:54:58;11.43;;;8.77;;
52858;SDS011;38721;53.098;6.596;2023-04-06T07:57:23;13.80;;;9.68;;
52858;SDS011;38721;53.098;6.596;2023-04-06T07:59:50;12.43;;;9.40;;
52858;SDS011;38721;53.098;6.596;2023-04-06T08:02:16;12.52;;;9.10;;
52858;SDS011;38721;53.098;6.596;2023-04-06T08:04:42;13.32;;;9.02;;
52858;SDS011;38721;53.098;6.596;2023-04-06T08:07:08;12.25;;;9.05;;
52858;SDS011;38721;53.098;6.596;2023-04-06T08:09:33;12.98;;;9.55;;
52858;SDS011;38721;53.098;6.596;2023-04-06T08:11:59;12.05;;;9.13;;
52858;SDS011;38721;53.098;6.596;2023-04-06T08:14:25;12.18;;;9.00;;
52858;SDS011;38721;53.098;6.596;2023-04-06T08:16:50;14.15;;;9.70;;
52858;SDS011;38721;53.098;6.596;2023-04-06T08:19:17;13.00;;;9.40;;
52858;SDS011;38721;53.098;6.596;2023-04-06T08:21:44;13.10;;;9.50;;
52858;SDS011;38721;53.098;6.596;2023-04-06T08:24:11;12.60;;;8.20;;
52858;SDS011;38721;53.098;6.596;2023-04-06T08:26:37;11.30;;;8.25;;
52858;SDS011;38721;53.098;6.596;2023-04-06T08:29:03;11.93;;;8.85;;
52858;SDS011;38721;53.098;6.596;2023-04-06T08:31:29;13.38;;;9.18;;
52858;SDS011;38721;53.098;6.596;2023-04-06T08:33:55;18.33;;;9.35;;
52858;SDS011;38721;53.098;6.596;2023-04-06T08:36:21;12.73;;;9.00;;
52858;SDS011;38721;53.098;6.596;2023-04-06T08:38:48;12.60;;;8.85;;
52858;SDS011;38721;53.098;6.596;2023-04-06T08:41:15;11.20;;;9.20;;
52858;SDS011;38721;53.098;6.596;2023-04-06T08:46:17;13.02;;;9.10;;
52858;SDS011;38721;53.098;6.596;2023-04-06T08:48:43;15.60;;;9.15;;
52858;SDS011;38721;53.098;6.596;2023-04-06T08:51:10;11.32;;;9.13;;
52858;SDS011;38721;53.098;6.596;2023-04-06T08:53:37;11.73;;;9.35;;
52858;SDS011;38721;53.098;6.596;2023-04-06T08:56:03;11.70;;;8.40;;
52858;SDS011;38721;53.098;6.596;2023-04-06T08:58:37;13.55;;;8.75;;
52858;SDS011;38721;53.098;6.596;2023-04-06T09:01:06;11.32;;;8.68;;
52858;SDS011;38721;53.098;6.596;2023-04-06T09:03:35;9.45;;;8.40;;
52858;SDS011;38721;53.098;6.596;2023-04-06T09:06:03;13.20;;;9.45;;
52858;SDS011;38721;53.098;6.596;2023-04-06T09:08:33;11.70;;;8.90;;
52858;SDS011;38721;53.098;6.596;2023-04-06T09:11:00;11.98;;;8.80;;
52858;SDS011;38721;53.098;6.596;2023-04-06T09:13:27;12.50;;;9.38;;
52858;SDS011;38721;53.098;6.596;2023-04-06T09:16:03;14.98;;;9.43;;
52858;SDS011;38721;53.098;6.596;2023-04-06T09:18:31;12.18;;;9.15;;
52858;SDS011;38721;53.098;6.596;2023-04-06T09:20:58;16.05;;;10.35;;
52858;SDS011;38721;53.098;6.596;2023-04-06T09:23:24;11.88;;;9.43;;
52858;SDS011;38721;53.098;6.596;2023-04-06T09:25:49;11.60;;;9.30;;
52858;SDS011;38721;53.098;6.596;2023-04-06T09:28:15;12.60;;;10.23;;
52858;SDS011;38721;53.098;6.596;2023-04-06T09:30:48;14.43;;;9.25;;
52858;SDS011;38721;53.098;6.596;2023-04-06T09:33:22;14.10;;;9.10;;
52858;SDS011;38721;53.098;6.596;2023-04-06T09:35:51;12.65;;;10.18;;
52858;SDS011;38721;53.098;6.596;2023-04-06T09:38:17;15.43;;;10.68;;
52858;SDS011;38721;53.098;6.596;2023-04-06T09:40:52;16.83;;;11.52;;
52858;SDS011;38721;53.098;6.596;2023-04-06T09:43:27;14.27;;;11.15;;
52858;SDS011;38721;53.098;6.596;2023-04-06T09:45:53;17.20;;;11.70;;
52858;SDS011;38721;53.098;6.596;2023-04-06T09:48:19;16.25;;;10.93;;
52858;SDS011;38721;53.098;6.596;2023-04-06T09:50:47;15.55;;;11.38;;
52858;SDS011;38721;53.098;6.596;2023-04-06T09:53:16;16.60;;;11.40;;
52858;SDS011;38721;53.098;6.596;2023-04-06T09:55:45;18.33;;;11.73;;
52858;SDS011;38721;53.098;6.596;2023-04-06T09:58:13;14.43;;;11.40;;
52858;SDS011;38721;53.098;6.596;2023-04-06T10:03:36;16.00;;;11.15;;
52858;SDS011;38721;53.098;6.596;2023-04-06T10:06:12;18.58;;;12.70;;
52858;SDS011;38721;53.098;6.596;2023-04-06T10:08:40;17.13;;;12.60;;
52858;SDS011;38721;53.098;6.596;2023-04-06T10:11:08;17.10;;;12.48;;
52858;SDS011;38721;53.098;6.596;2023-04-06T10:13:35;16.20;;;12.30;;
52858;SDS011;38721;53.098;6.596;2023-04-06T10:16:00;15.25;;;11.40;;
52858;SDS011;38721;53.098;6.596;2023-04-06T10:18:27;19.60;;;12.13;;
52858;SDS011;38721;53.098;6.596;2023-04-06T10:20:53;20.10;;;13.02;;
52858;SDS011;38721;53.098;6.596;2023-04-06T10:23:33;19.70;;;13.07;;
52858;SDS011;38721;53.098;6.596;2023-04-06T10:26:00;18.45;;;13.43;;
52858;SDS011;38721;53.098;6.596;2023-04-06T10:28:34;19.08;;;13.68;;
52858;SDS011;38721;53.098;6.596;2023-04-06T10:31:01;19.77;;;13.60;;
52858;SDS011;38721;53.098;6.596;2023-04-06T10:33:34;19.23;;;13.70;;
52858;SDS011;38721;53.098;6.596;2023-04-06T10:36:12;22.90;;;13.82;;
52858;SDS011;38721;53.098;6.596;2023-04-06T10:38:40;21.58;;;15.23;;
52858;SDS011;38721;53.098;6.596;2023-04-06T10:41:06;21.35;;;15.00;;
52858;SDS011;38721;53.098;6.596;2023-04-06T10:43:37;24.73;;;16.20;;
52858;SDS011;38721;53.098;6.596;2023-04-06T10:46:04;20.83;;;15.13;;
52858;SDS011;38721;53.098;6.596;2023-04-06T10:48:41;23.42;;;16.38;;
52858;SDS011;38721;53.098;6.596;2023-04-06T10:51:15;23.35;;;15.88;;
52858;SDS011;38721;53.098;6.596;2023-04-06T10:53:43;22.30;;;16.10;;
52858;SDS011;38721;53.098;6.596;2023-04-06T10:56:14;24.05;;;17.20;;
52858;SDS011;38721;53.098;6.596;2023-04-06T10:58:46;26.00;;;18.13;;
52858;SDS011;38721;53.098;6.596;2023-04-06T11:01:18;23.17;;;16.48;;
52858;SDS011;38721;53.098;6.596;2023-04-06T11:03:52;25.02;;;18.30;;
52858;SDS011;38721;53.098;6.596;2023-04-06T11:06:23;27.13;;;19.43;;
52858;SDS011;38721;53.098;6.596;2023-04-06T11:08:53;24.63;;;18.95;;
52858;SDS011;38721;53.098;6.596;2023-04-06T11:11:20;23.23;;;18.13;;
52858;SDS011;38721;53.098;6.596;2023-04-06T11:13:58;27.63;;;18.83;;
52858;SDS011;38721;53.098;6.596;2023-04-06T11:16:26;27.98;;;19.65;;
52858;SDS011;38721;53.098;6.596;2023-04-06T11:18:54;28.98;;;19.58;;
52858;SDS011;38721;53.098;6.596;2023-04-06T11:21:31;28.27;;;20.42;;
52858;SDS011;38721;53.098;6.596;2023-04-06T11:26:58;29.85;;;19.48;;
52858;SDS011;38721;53.098;6.596;2023-04-06T11:29:27;28.45;;;20.70;;
52858;SDS011;38721;53.098;6.596;2023-04-06T11:31:58;26.60;;;19.27;;
52858;SDS011;38721;53.098;6.596;2023-04-06T11:34:29;24.90;;;18.92;;
52858;SDS011;38721;53.098;6.596;2023-04-06T11:37:01;28.48;;;19.48;;
52858;SDS011;38721;53.098;6.596;2023-04-06T11:39:31;26.50;;;20.45;;
52858;SDS011;38721;53.098;6.596;2023-04-06T11:42:01;25.77;;;20.08;;
52858;SDS011;38721;53.098;6.596;2023-04-06T11:44:40;27.70;;;20.08;;
52858;SDS011;38721;53.098;6.596;2023-04-06T11:47:10;28.75;;;19.23;;
52858;SDS011;38721;53.098;6.596;2023-04-06T11:49:37;25.60;;;19.60;;
52858;SDS011;38721;53.098;6.596;2023-04-06T11:52:13;27.00;;;20.17;;
52858;SDS011;38721;53.098;6.596;2023-04-06T11:54:43;25.35;;;19.42;;
52858;SDS011;38721;53.098;6.596;2023-04-06T11:57:09;29.40;;;21.60;;
52858;SDS011;38721;53.098;6.596;2023-04-06T11:59:35;30.63;;;20.75;;
52858;SDS011;38721;53.098;6.596;2023-04-06T12:02:04;25.98;;;19.25;;
52858;SDS011;38721;53.098;6.596;2023-04-06T12:04:30;23.52;;;18.55;;
52858;SDS011;38721;53.098;6.596;2023-04-06T12:06:56;26.88;;;19.45;;
52858;SDS011;38721;53.098;6.596;2023-04-06T12:09:22;27.92;;;20.20;;
52858;SDS011;38721;53.098;6.596;2023-04-06T12:11:48;27.27;;;20.65;;
52858;SDS011;38721;53.098;6.596;2023-04-06T12:14:14;28.42;;;20.80;;
52858;SDS011;38721;53.098;6.596;2023-04-06T12:16:40;26.83;;;19.75;;
52858;SDS011;38721;53.098;6.596;2023-04-06T12:19:06;27.23;;;19.77;;
52858;SDS011;38721;53.098;6.596;2023-04-06T12:21:32;26.63;;;20.30;;
52858;SDS011;38721;53.098;6.596;2023-04-06T12:23:59;27.27;;;19.25;;
52858;SDS011;38721;53.098;6.596;2023-04-06T12:26:25;26.38;;;19.77;;
52858;SDS011;38721;53.098;6.596;2023-04-06T12:28:51;27.85;;;19.65;;
52858;SDS011;38721;53.098;6.596;2023-04-06T12:31:17;25.73;;;18.80;;
52858;SDS011;38721;53.098;6.596;2023-04-06T12:33:48;27.13;;;19.50;;
52858;SDS011;38721;53.098;6.596;2023-04-06T12:36:14;26.25;;;18.73;;
52858;SDS011;38721;53.098;6.596;2023-04-06T12:38:44;24.00;;;18.77;;
52858;SDS011;38721;53.098;6.596;2023-04-06T12:41:12;26.50;;;18.48;;
52858;SDS011;38721;53.098;6.596;2023-04-06T12:43:41;26.80;;;19.70;;
52858;SDS011;38721;53.098;6.596;2023-04-06T12:46:10;25.58;;;19.02;;
52858;SDS011;38721;53.098;6.596;2023-04-06T12:48:36;27.73;;;19.67;;
52858;SDS011;38721;53.098;6.596;2023-04-06T12:51:09;26.67;;;19.90;;
52858;SDS011;38721;53.098;6.596;2023-04-06T12:53:34;25.50;;;19.35;;
52858;SDS011;38721;53.098;6.596;2023-04-06T12:56:01;27.85;;;20.15;;
52858;SDS011;38721;53.098;6.596;2023-04-06T12:58:27;31.45;;;20.40;;
52858;SDS011;38721;53.098;6.596;2023-04-06T13:00:53;27.27;;;19.38;;
52858;SDS011;38721;53.098;6.596;2023-04-06T13:03:20;30.48;;;19.70;;
52858;SDS011;38721;53.098;6.596;2023-04-06T13:05:47;27.75;;;19.75;;
52858;SDS011;38721;53.098;6.596;2023-04-06T13:08:17;24.48;;;18.58;;
52858;SDS011;38721;53.098;6.596;2023-04-06T13:10:44;28.80;;;19.60;;
52858;SDS011;38721;53.098;6.596;2023-04-06T13:13:13;30.15;;;19.33;;
52858;SDS011;38721;53.098;6.596;2023-04-06T13:15:42;24.88;;;19.17;;
52858;SDS011;38721;53.098;6.596;2023-04-06T13:18:09;27.00;;;20.02;;
52858;SDS011;38721;53.098;6.596;2023-04-06T13:20:35;24.65;;;19.15;;
52858;SDS011;38721;53.098;6.596;2023-04-06T13:23:01;25.83;;;18.83;;
52858;SDS011;38721;53.098;6.596;2023-04-06T13:25:27;27.27;;;19.25;;
52858;SDS011;38721;53.098;6.596;2023-04-06T13:27:56;26.45;;;18.95;;
52858;SDS011;38721;53.098;6.596;2023-04-06T13:30:22;25.33;;;17.88;;
52858;SDS011;38721;53.098;6.596;2023-04-06T13:32:47;24.98;;;18.27;;
52858;SDS011;38721;53.098;6.596;2023-04-06T13:35:13;23.90;;;18.38;;
52858;SDS011;38721;53.098;6.596;2023-04-06T13:37:39;23.83;;;17.23;;
52858;SDS011;38721;53.098;6.596;2023-04-06T13:40:05;24.08;;;17.15;;
52858;SDS011;38721;53.098;6.596;2023-04-06T13:42:31;24.42;;;17.83;;
52858;SDS011;38721;53.098;6.596;2023-04-06T13:45:00;23.15;;;17.33;;
52858;SDS011;38721;53.098;6.596;2023-04-06T13:47:26;23.52;;;16.45;;
52858;SDS011;38721;53.098;6.596;2023-04-06T13:49:52;22.30;;;15.73;;
52858;SDS011;38721;53.098;6.596;2023-04-06T13:52:19;23.55;;;17.30;;
52858;SDS011;38721;53.098;6.596;2023-04-06T13:54:44;23.67;;;17.50;;
52858;SDS011;38721;53.098;6.596;2023-04-06T13:57:11;21.98;;;16.98;;
52858;SDS011;38721;53.098;6.596;2023-04-06T13:59:37;23.20;;;16.48;;
52858;SDS011;38721;53.098;6.596;2023-04-06T14:02:04;22.90;;;15.65;;
52858;SDS011;38721;53.098;6.596;2023-04-06T14:04:34;20.83;;;15.27;;
52858;SDS011;38721;53.098;6.596;2023-04-06T14:07:00;20.48;;;15.73;;
52858;SDS011;38721;53.098;6.596;2023-04-06T14:09:27;20.88;;;15.48;;
52858;SDS011;38721;53.098;6.596;2023-04-06T14:11:54;20.45;;;15.65;;
52858;SDS011;38721;53.098;6.596;2023-04-06T14:14:20;21.00;;;15.32;;
52858;SDS011;38721;53.098;6.596;2023-04-06T14:16:47;19.85;;;15.23;;
52858;SDS011;38721;53.098;6.596;2023-04-06T14:19:14;20.98;;;14.68;;
52858;SDS011;38721;53.098;6.596;2023-04-06T14:21:42;18.50;;;14.48;;
52858;SDS011;38721;53.098;6.596;2023-04-06T14:24:11;20.95;;;14.50;;
52858;SDS011;38721;53.098;6.596;2023-04-06T14:26:39;17.77;;;14.40;;
52858;SDS011;38721;53.098;6.596;2023-04-06T14:29:06;21.15;;;15.13;;
52858;SDS011;38721;53.098;6.596;2023-04-06T14:31:32;21.65;;;15.45;;
52858;SDS011;38721;53.098;6.596;2023-04-06T14:34:00;18.27;;;15.25;;
52858;SDS011;38721;53.098;6.596;2023-04-06T14:36:31;21.10;;;14.80;;
52858;SDS011;38721;53.098;6.596;2023-04-06T14:39:03;17.73;;;14.20;;